createdAt,value
2018-11-29T00:01:53.323Z,21.37
2018-11-29T00:04:21.483Z,21.82
2018-11-29T00:06:49.665Z,21.90
2018-11-29T00:09:17.859Z,23.75
2018-11-29T00:11:46.046Z,21.73
2018-11-29T00:14:14.263Z,21.85
2018-11-29T00:16:42.465Z,20.80
2018-11-29T00:19:10.660Z,21.02
2018-11-29T00:21:38.821Z,23.07
2018-11-29T00:24:06.993Z,22.58
2018-11-29T00:26:35.212Z,21.27
2018-11-29T00:29:03.358Z,23.62
2018-11-29T00:31:31.595Z,22.93
2018-11-29T00:33:59.801Z,21.65
2018-11-29T00:36:27.950Z,21.90
2018-11-29T00:38:56.134Z,22.10
2018-11-29T00:41:24.353Z,23.18
2018-11-29T00:43:52.543Z,23.10
2018-11-29T00:46:20.707Z,22.42
2018-11-29T00:48:48.997Z,24.25
2018-11-29T00:51:17.155Z,24.07
2018-11-29T00:53:45.358Z,22.42
2018-11-29T00:56:13.527Z,24.20
2018-11-29T00:58:41.783Z,23.32
2018-11-29T01:01:10.014Z,24.37
2018-11-29T01:03:38.256Z,22.13
2018-11-29T01:06:06.536Z,22.30
2018-11-29T01:08:34.788Z,23.10
2018-11-29T01:11:03.033Z,23.38
2018-11-29T01:13:31.260Z,21.45
2018-11-29T01:15:59.511Z,21.55
2018-11-29T01:18:27.741Z,21.87
2018-11-29T01:20:55.914Z,21.48
2018-11-29T01:23:24.165Z,22.37
2018-11-29T01:25:52.625Z,22.35
2018-11-29T01:28:20.857Z,22.77
2018-11-29T01:30:49.102Z,22.32
2018-11-29T01:33:17.325Z,23.40
2018-11-29T01:35:45.593Z,22.22
2018-11-29T01:38:13.831Z,22.77
2018-11-29T01:40:42.011Z,24.40
2018-11-29T01:43:10.269Z,21.97
2018-11-29T01:45:38.499Z,22.58
2018-11-29T01:48:06.715Z,22.75
2018-11-29T01:50:35.011Z,21.68
2018-11-29T01:53:03.245Z,21.82
2018-11-29T01:55:31.548Z,21.27
2018-11-29T01:57:59.793Z,21.70
2018-11-29T02:00:28.030Z,21.77
2018-11-29T02:02:56.291Z,21.93
2018-11-29T02:05:24.504Z,21.17
2018-11-29T02:07:52.793Z,22.15
2018-11-29T02:10:26.563Z,22.87
2018-11-29T02:12:54.923Z,20.92
2018-11-29T02:15:23.267Z,22.55
2018-11-29T02:17:51.615Z,21.80
2018-11-29T02:20:20.013Z,22.90
2018-11-29T02:22:48.280Z,22.52
2018-11-29T02:25:16.568Z,20.27
2018-11-29T02:27:44.839Z,22.35
2018-11-29T02:30:14.796Z,23.05
2018-11-29T02:32:43.055Z,24.50
2018-11-29T02:35:11.275Z,22.82
2018-11-29T02:37:39.478Z,22.32
2018-11-29T02:40:09.421Z,23.80
2018-11-29T02:42:37.587Z,24.65
2018-11-29T02:45:07.208Z,22.75
2018-11-29T02:47:35.420Z,23.70
2018-11-29T02:50:03.643Z,23.95
2018-11-29T02:52:32.014Z,24.20
2018-11-29T02:55:00.263Z,22.48
2018-11-29T02:57:28.489Z,23.15
2018-11-29T02:59:56.691Z,23.60
2018-11-29T03:02:24.837Z,23.40
2018-11-29T03:04:53.108Z,22.95
2018-11-29T03:07:21.311Z,22.85
2018-11-29T03:09:49.466Z,22.82
2018-11-29T03:12:17.660Z,24.52
2018-11-29T03:14:45.829Z,24.43
2018-11-29T03:17:14.104Z,23.42
2018-11-29T03:19:42.295Z,22.55
2018-11-29T03:22:10.574Z,24.05
2018-11-29T03:24:38.767Z,23.95
2018-11-29T03:27:07.017Z,24.92
2018-11-29T03:29:35.227Z,24.27
2018-11-29T03:32:03.464Z,24.85
2018-11-29T03:34:31.684Z,25.62
2018-11-29T03:36:59.842Z,24.40
2018-11-29T03:39:28.071Z,24.32
2018-11-29T03:41:56.207Z,24.47
2018-11-29T03:44:24.441Z,23.85
2018-11-29T03:46:52.690Z,23.75
2018-11-29T03:49:20.878Z,23.95
2018-11-29T03:51:49.067Z,23.85
2018-11-29T03:54:17.243Z,23.45
2018-11-29T03:56:45.452Z,24.37
2018-11-29T03:59:13.692Z,23.55
2018-11-29T04:01:41.943Z,23.83
2018-11-29T04:04:10.112Z,24.80
2018-11-29T04:06:38.327Z,23.87
2018-11-29T04:09:08.722Z,23.47
2018-11-29T04:11:36.931Z,23.77
2018-11-29T04:14:05.205Z,22.80
2018-11-29T04:16:33.452Z,23.83
2018-11-29T04:19:02.040Z,23.65
2018-11-29T04:21:30.379Z,23.10
2018-11-29T04:23:58.592Z,22.62
2018-11-29T04:26:26.788Z,22.55
2018-11-29T04:28:54.966Z,22.05
2018-11-29T04:31:23.223Z,22.62
2018-11-29T04:33:51.419Z,21.02
2018-11-29T04:36:19.666Z,22.40
2018-11-29T04:38:47.908Z,22.10
2018-11-29T04:41:16.047Z,23.50
2018-11-29T04:43:44.267Z,24.27
2018-11-29T04:46:31.601Z,22.52
2018-11-29T04:48:59.885Z,23.18
2018-11-29T04:51:28.041Z,22.52
2018-11-29T04:53:56.230Z,21.97
2018-11-29T04:56:24.445Z,24.80
2018-11-29T04:58:52.623Z,22.82
2018-11-29T05:01:20.803Z,23.15
2018-11-29T05:03:48.986Z,24.20
2018-11-29T05:06:17.225Z,24.27
2018-11-29T05:08:45.465Z,23.80
2018-11-29T05:11:13.747Z,24.50
2018-11-29T05:13:41.979Z,24.27
2018-11-29T05:16:10.189Z,25.25
2018-11-29T05:18:38.449Z,23.02
2018-11-29T05:21:06.682Z,23.95
2018-11-29T05:23:34.856Z,23.80
2018-11-29T05:26:03.009Z,23.45
2018-11-29T05:28:31.310Z,23.80
2018-11-29T05:30:59.567Z,22.73
2018-11-29T05:33:27.787Z,24.05
2018-11-29T05:35:55.967Z,24.32
2018-11-29T05:38:24.232Z,25.08
2018-11-29T05:40:52.565Z,24.37
2018-11-29T05:43:20.687Z,23.30
2018-11-29T05:45:48.823Z,23.18
2018-11-29T05:48:16.909Z,22.13
2018-11-29T05:50:45.068Z,23.57
2018-11-29T05:53:13.199Z,22.07
2018-11-29T05:55:41.375Z,22.60
2018-11-29T05:58:09.530Z,24.12
2018-11-29T06:00:37.715Z,23.18
2018-11-29T06:03:05.864Z,23.95
2018-11-29T06:05:34.015Z,24.75
2018-11-29T06:08:02.145Z,24.23
2018-11-29T06:10:30.315Z,25.05
2018-11-29T06:12:58.417Z,25.10
2018-11-29T06:15:26.707Z,23.12
2018-11-29T06:17:54.799Z,24.05
2018-11-29T06:20:22.978Z,23.42
2018-11-29T06:22:51.216Z,24.52
2018-11-29T06:25:19.399Z,27.02
2018-11-29T06:27:47.560Z,24.50
2018-11-29T06:30:23.089Z,24.70
2018-11-29T06:32:52.401Z,23.30
2018-11-29T06:35:19.752Z,23.77
2018-11-29T06:37:47.899Z,24.50
2018-11-29T06:40:16.378Z,21.77
2018-11-29T06:42:44.629Z,22.65
2018-11-29T06:45:13.427Z,22.20
2018-11-29T06:47:41.644Z,23.87
2018-11-29T06:50:13.014Z,22.73
2018-11-29T06:52:41.421Z,24.25
2018-11-29T06:55:10.262Z,22.42
2018-11-29T06:57:38.421Z,22.50
2018-11-29T07:00:12.195Z,22.62
2018-11-29T07:02:40.285Z,23.42
2018-11-29T07:05:08.689Z,21.48
2018-11-29T07:07:36.809Z,22.67
2018-11-29T07:10:06.829Z,22.27
2018-11-29T07:12:35.096Z,22.58
2018-11-29T07:15:03.189Z,21.90
2018-11-29T07:17:31.321Z,21.73
2018-11-29T07:19:59.458Z,20.20
2018-11-29T07:22:28.364Z,19.57
2018-11-29T07:24:56.499Z,20.08
2018-11-29T07:27:24.649Z,19.95
2018-11-29T07:29:52.828Z,20.23
2018-11-29T07:32:23.319Z,19.85
2018-11-29T07:34:51.563Z,19.37
2018-11-29T07:37:19.690Z,18.57
2018-11-29T07:39:47.840Z,18.10
2018-11-29T07:42:15.971Z,19.32
2018-11-29T07:44:44.139Z,18.25
2018-11-29T07:47:12.245Z,17.23
2018-11-29T07:49:40.399Z,17.20
2018-11-29T07:52:08.595Z,16.40
2018-11-29T07:54:36.775Z,18.37
2018-11-29T07:57:04.926Z,15.15
2018-11-29T07:59:33.094Z,16.07
2018-11-29T08:02:01.193Z,15.65
2018-11-29T08:04:29.461Z,16.02
2018-11-29T08:06:57.638Z,15.85
2018-11-29T08:09:25.747Z,16.55
2018-11-29T08:11:53.875Z,17.02
2018-11-29T08:14:22.074Z,16.23
2018-11-29T08:16:50.251Z,16.37
2018-11-29T08:19:18.425Z,16.25
2018-11-29T08:21:46.549Z,16.60
2018-11-29T08:24:14.704Z,17.95
2018-11-29T08:26:42.859Z,17.27
2018-11-29T08:29:11.021Z,17.05
2018-11-29T08:31:39.121Z,17.42
2018-11-29T08:34:07.293Z,16.77
2018-11-29T08:36:35.411Z,17.48
2018-11-29T08:39:04.819Z,18.80
2018-11-29T08:41:32.967Z,19.10
2018-11-29T08:44:01.071Z,17.27
2018-11-29T08:46:29.251Z,18.35
2018-11-29T08:48:57.471Z,17.98
2018-11-29T08:51:25.633Z,19.70
2018-11-29T08:53:53.919Z,18.48
2018-11-29T08:56:22.031Z,19.67
2018-11-29T08:58:50.177Z,19.12
2018-11-29T09:01:18.319Z,18.45
2018-11-29T09:03:46.434Z,19.50
2018-11-29T09:06:14.631Z,18.55
2018-11-29T09:08:42.771Z,19.25
2018-11-29T09:11:10.926Z,18.75
2018-11-29T09:13:39.027Z,19.62
2018-11-29T09:16:07.217Z,20.60
2018-11-29T09:18:35.287Z,21.90
2018-11-29T09:21:03.435Z,20.05
2018-11-29T09:23:31.607Z,21.45
2018-11-29T09:25:59.709Z,21.17
2018-11-29T09:28:27.799Z,21.25
2018-11-29T09:30:56.000Z,20.75
2018-11-29T09:33:24.129Z,21.52
2018-11-29T09:35:52.269Z,20.15
2018-11-29T09:38:20.427Z,19.40
2018-11-29T09:40:48.573Z,20.85
2018-11-29T09:43:16.742Z,19.60
2018-11-29T09:45:45.018Z,19.52
2018-11-29T09:48:13.249Z,20.10
2018-11-29T09:50:41.458Z,21.33
2018-11-29T09:53:09.681Z,20.40
2018-11-29T09:55:37.796Z,21.35
2018-11-29T09:58:05.917Z,21.45
2018-11-29T10:00:34.065Z,21.30
2018-11-29T10:03:11.527Z,21.17
2018-11-29T10:05:40.076Z,19.85
2018-11-29T10:08:11.859Z,20.95
2018-11-29T10:10:36.871Z,19.73
2018-11-29T10:13:05.115Z,21.52
2018-11-29T10:15:33.537Z,20.75
2018-11-29T10:18:01.675Z,20.35
2018-11-29T10:20:29.925Z,19.73
2018-11-29T10:22:58.036Z,19.87
2018-11-29T10:25:26.207Z,20.30
2018-11-29T10:27:55.256Z,19.98
2018-11-29T10:30:25.062Z,19.98
2018-11-29T10:32:53.195Z,21.45
2018-11-29T10:35:21.455Z,19.87
2018-11-29T10:37:49.598Z,20.08
2018-11-29T10:40:17.882Z,20.50
2018-11-29T10:42:46.046Z,19.87
2018-11-29T10:45:14.705Z,21.37
2018-11-29T10:47:43.263Z,21.00
2018-11-29T10:50:12.949Z,20.45
2018-11-29T10:52:41.129Z,19.98
2018-11-29T10:55:10.072Z,21.70
2018-11-29T10:57:38.198Z,20.60
2018-11-29T11:00:08.983Z,20.12
2018-11-29T11:02:41.421Z,20.75
2018-11-29T11:05:09.587Z,20.23
2018-11-29T11:07:38.751Z,20.37
2018-11-29T11:10:06.128Z,19.93
2018-11-29T11:12:34.276Z,19.85
2018-11-29T11:15:02.398Z,20.88
2018-11-29T11:17:30.522Z,19.25
2018-11-29T11:19:58.658Z,18.90
2018-11-29T11:22:26.788Z,19.32
2018-11-29T11:24:54.949Z,19.60
2018-11-29T11:27:23.065Z,19.47
2018-11-29T11:29:51.224Z,20.30
2018-11-29T11:32:19.451Z,18.20
2018-11-29T11:34:47.684Z,19.10
2018-11-29T11:37:15.826Z,19.27
2018-11-29T11:39:44.039Z,19.13
2018-11-29T11:42:12.135Z,17.97
2018-11-29T11:44:40.330Z,19.17
2018-11-29T11:47:08.456Z,17.70
2018-11-29T11:49:36.621Z,18.30
2018-11-29T11:52:04.763Z,19.50
2018-11-29T11:54:32.960Z,18.03
2018-11-29T11:57:01.105Z,17.93
2018-11-29T11:59:29.272Z,18.30
2018-11-29T12:01:57.405Z,17.63
2018-11-29T12:04:25.585Z,18.07
2018-11-29T12:06:53.705Z,19.02
2018-11-29T12:09:22.108Z,17.42
2018-11-29T12:11:50.406Z,17.53
2018-11-29T12:14:18.532Z,17.92
2018-11-29T12:16:46.723Z,17.80
2018-11-29T12:19:14.934Z,17.00
2018-11-29T12:21:43.066Z,18.10
2018-11-29T12:24:11.189Z,18.33
2018-11-29T12:26:39.340Z,18.07
2018-11-29T12:29:07.437Z,17.27
2018-11-29T12:31:35.677Z,18.33
2018-11-29T12:34:03.815Z,20.77
2018-11-29T12:36:31.928Z,18.23
2018-11-29T12:39:00.133Z,17.40
2018-11-29T12:41:28.394Z,17.83
2018-11-29T12:43:56.437Z,17.67
2018-11-29T12:46:24.622Z,17.60
2018-11-29T12:48:52.803Z,17.33
2018-11-29T12:51:20.916Z,17.77
2018-11-29T12:53:49.037Z,16.63
2018-11-29T12:56:17.165Z,18.07
2018-11-29T12:58:45.252Z,16.53
2018-11-29T13:01:13.556Z,17.03
2018-11-29T13:03:41.726Z,17.23
2018-11-29T13:06:09.853Z,16.97
2018-11-29T13:08:38.062Z,18.77
2018-11-29T13:11:08.572Z,17.00
2018-11-29T13:13:34.501Z,16.93
2018-11-29T13:16:02.777Z,17.37
2018-11-29T13:18:31.003Z,17.20
2018-11-29T13:21:03.273Z,17.13
2018-11-29T13:23:31.429Z,18.07
2018-11-29T13:25:59.620Z,17.13
2018-11-29T13:28:27.727Z,17.03
2018-11-29T13:30:55.911Z,17.10
2018-11-29T13:33:24.067Z,18.10
2018-11-29T13:35:52.238Z,17.90
2018-11-29T13:38:20.544Z,17.07
2018-11-29T13:40:49.316Z,18.63
2018-11-29T13:43:17.506Z,18.00
2018-11-29T13:45:45.749Z,19.67
2018-11-29T13:48:13.951Z,18.40
2018-11-29T13:50:42.280Z,19.37
2018-11-29T13:53:10.505Z,17.43
2018-11-29T13:55:38.904Z,18.67
2018-11-29T13:58:06.948Z,17.60
2018-11-29T14:00:35.243Z,18.13
2018-11-29T14:03:08.041Z,18.42
2018-11-29T14:05:36.561Z,19.23
2018-11-29T14:08:05.249Z,18.00
2018-11-29T14:10:35.663Z,18.60
2018-11-29T14:13:04.126Z,18.98
2018-11-29T14:15:32.339Z,18.90
2018-11-29T14:18:00.577Z,19.73
2018-11-29T14:20:28.779Z,19.73
2018-11-29T14:22:56.951Z,18.90
2018-11-29T14:25:25.118Z,19.97
2018-11-29T14:27:53.840Z,18.30
2018-11-29T14:30:25.448Z,18.42
2018-11-29T14:32:54.089Z,17.07
2018-11-29T14:35:22.325Z,19.77
2018-11-29T14:37:50.570Z,19.20
2018-11-29T14:40:19.231Z,20.10
2018-11-29T14:42:47.440Z,19.40
2018-11-29T14:45:16.222Z,18.90
2018-11-29T14:47:44.417Z,18.77
2018-11-29T14:50:28.412Z,19.92
2018-11-29T14:52:56.671Z,20.05
2018-11-29T14:55:24.911Z,20.30
2018-11-29T14:57:53.042Z,18.95
2018-11-29T15:00:21.289Z,18.40
2018-11-29T15:02:49.475Z,20.17
2018-11-29T15:05:25.731Z,18.27
2018-11-29T15:07:53.901Z,19.12
2018-11-29T15:10:22.096Z,19.40
2018-11-29T15:12:50.244Z,17.82
2018-11-29T15:15:18.413Z,18.17
2018-11-29T15:17:47.001Z,18.57
2018-11-29T15:20:17.750Z,17.77
2018-11-29T15:22:45.999Z,19.17
2018-11-29T15:25:14.147Z,18.77
2018-11-29T15:27:42.352Z,18.20
2018-11-29T15:30:11.348Z,17.35
2018-11-29T15:32:39.547Z,17.35
2018-11-29T15:35:07.978Z,18.87
2018-11-29T15:37:36.197Z,17.32
2018-11-29T15:40:05.516Z,17.30
2018-11-29T15:42:33.772Z,17.98
2018-11-29T15:45:01.921Z,16.30
2018-11-29T15:47:30.059Z,16.85
2018-11-29T15:49:58.324Z,17.25
2018-11-29T15:52:26.449Z,15.53
2018-11-29T15:54:54.582Z,16.87
2018-11-29T15:57:22.772Z,16.42
2018-11-29T15:59:50.916Z,15.72
2018-11-29T16:02:19.082Z,15.55
2018-11-29T16:04:47.205Z,16.77
2018-11-29T16:07:15.342Z,16.85
2018-11-29T16:09:43.530Z,18.15
2018-11-29T16:12:11.988Z,15.95
2018-11-29T16:14:43.445Z,15.70
2018-11-29T16:17:08.342Z,15.83
2018-11-29T16:19:36.483Z,16.73
2018-11-29T16:22:05.009Z,15.63
2018-11-29T16:24:33.200Z,15.48
2018-11-29T16:27:01.407Z,16.95
2018-11-29T16:29:29.510Z,15.80
2018-11-29T16:31:57.725Z,17.25
2018-11-29T16:34:25.882Z,17.17
2018-11-29T16:36:54.044Z,17.37
2018-11-29T16:39:22.243Z,15.93
2018-11-29T16:41:51.325Z,16.45
2018-11-29T16:44:19.485Z,17.50
2018-11-29T16:46:47.715Z,16.05
2018-11-29T16:49:15.864Z,15.30
2018-11-29T16:51:44.012Z,15.98
2018-11-29T17:02:40.180Z,15.05
2018-11-29T17:05:09.073Z,16.42
2018-11-29T17:07:37.197Z,15.80
2018-11-29T17:10:06.864Z,16.27
2018-11-29T17:15:22.681Z,17.65
2018-11-29T17:20:35.421Z,17.55
2018-11-29T17:23:03.621Z,15.53
2018-11-29T17:25:31.912Z,17.27
2018-11-29T17:28:00.018Z,16.07
2018-11-29T17:30:28.196Z,15.93
2018-11-29T17:32:56.928Z,16.27
2018-11-29T17:35:25.208Z,15.63
2018-11-29T17:37:54.790Z,15.90
2018-11-29T17:40:22.948Z,16.60
2018-11-29T17:42:51.606Z,15.63
2018-11-29T17:45:25.216Z,16.10
2018-11-29T17:47:53.998Z,16.27
2018-11-29T17:50:22.785Z,15.58
2018-11-29T17:52:50.981Z,18.12
2018-11-29T17:55:19.143Z,15.88
2018-11-29T17:57:47.288Z,15.75
2018-11-29T18:00:17.257Z,15.25
2018-11-29T18:02:45.447Z,15.48
2018-11-29T18:05:13.615Z,15.68
2018-11-29T18:07:41.741Z,14.58
2018-11-29T18:10:12.631Z,15.68
2018-11-29T18:12:40.784Z,14.15
2018-11-29T18:15:09.866Z,15.20
2018-11-29T18:17:38.102Z,16.02
2018-11-29T18:20:06.926Z,16.67
2018-11-29T18:22:35.090Z,16.07
2018-11-29T18:25:03.251Z,15.10
2018-11-29T18:27:31.576Z,15.58
2018-11-29T18:29:59.850Z,15.40
2018-11-29T18:32:27.953Z,15.55
2018-11-29T18:34:56.145Z,16.40
2018-11-29T18:37:24.920Z,15.68
2018-11-29T18:39:53.307Z,14.70
2018-11-29T18:42:22.032Z,15.95
2018-11-29T18:44:52.242Z,14.00
2018-11-29T18:47:20.327Z,14.20
2018-11-29T18:49:48.544Z,14.95
2018-11-29T18:52:16.702Z,15.75
2018-11-29T18:54:44.966Z,15.10
2018-11-29T18:57:24.008Z,13.75
2018-11-29T18:59:52.879Z,14.55
2018-11-29T19:02:21.249Z,15.80
2018-11-29T19:04:49.499Z,16.10
2018-11-29T19:07:17.776Z,14.83
2018-11-29T19:09:45.982Z,15.83
2018-11-29T19:12:14.185Z,14.95
2018-11-29T19:14:42.396Z,15.68
2018-11-29T19:17:10.609Z,16.05
2018-11-29T19:19:38.856Z,15.13
2018-11-29T19:22:07.136Z,15.38
2018-11-29T19:24:35.356Z,14.90
2018-11-29T19:27:21.257Z,15.03
2018-11-29T19:29:49.462Z,15.45
2018-11-29T19:32:17.594Z,14.45
2018-11-29T19:34:45.811Z,16.57
2018-11-29T19:37:13.954Z,15.55
2018-11-29T19:39:42.156Z,15.08
2018-11-29T19:42:10.393Z,15.23
2018-11-29T19:44:38.612Z,15.35
2018-11-29T19:47:44.666Z,14.98
2018-11-29T19:50:23.948Z,14.65
2018-11-29T19:52:53.661Z,15.28
2018-11-29T19:55:22.612Z,16.32
2018-11-29T19:57:50.873Z,14.58
2018-11-29T20:00:19.210Z,15.68
2018-11-29T20:02:47.597Z,14.73
2018-11-29T20:05:15.777Z,14.95
2018-11-29T20:07:44.066Z,15.30
2018-11-29T20:10:13.645Z,15.75
2018-11-29T20:12:41.891Z,15.53
2018-11-29T20:15:11.005Z,15.08
2018-11-29T20:17:39.215Z,15.05
2018-11-29T20:20:08.237Z,15.08
2018-11-29T20:22:37.593Z,15.40
2018-11-29T20:25:07.423Z,15.58
2018-11-29T20:27:46.969Z,15.68
2018-11-29T20:30:17.628Z,15.72
2018-11-29T20:32:46.058Z,16.50
2018-11-29T20:35:14.286Z,15.98
2018-11-29T20:37:43.066Z,15.68
2018-11-29T20:40:13.175Z,17.17
2018-11-29T20:42:43.664Z,16.57
2018-11-29T20:45:15.807Z,16.60
2018-11-29T20:47:46.730Z,17.00
2018-11-29T20:50:28.246Z,16.85
2018-11-29T20:52:57.138Z,16.48
2018-11-29T20:55:28.882Z,16.65
2018-11-29T20:57:57.208Z,16.75
2018-11-29T21:00:25.345Z,16.97
2018-11-29T21:02:53.552Z,16.73
2018-11-29T21:05:22.160Z,18.30
2018-11-29T21:07:51.819Z,17.23
2018-11-29T21:10:20.561Z,17.67
2018-11-29T21:12:48.742Z,17.90
2018-11-29T21:15:16.855Z,16.80
2018-11-29T21:17:44.996Z,16.35
2018-11-29T21:20:13.791Z,18.02
2018-11-29T21:22:42.476Z,17.52
2018-11-29T21:25:11.263Z,16.67
2018-11-29T21:27:39.470Z,17.80
2018-11-29T21:30:09.774Z,17.32
2018-11-29T21:32:37.944Z,17.05
2018-11-29T21:35:06.214Z,17.85
2018-11-29T21:37:34.438Z,17.48
2018-11-29T21:40:02.593Z,17.25
2018-11-29T21:42:30.780Z,18.45
2018-11-29T21:44:59.063Z,16.67
2018-11-29T21:47:27.289Z,18.87
2018-11-29T21:49:55.481Z,18.25
2018-11-29T21:52:23.649Z,18.48
2018-11-29T21:54:52.149Z,17.57
2018-11-29T21:57:20.743Z,17.75
2018-11-29T21:59:49.285Z,18.77
2018-11-29T22:02:17.844Z,17.35
2018-11-29T22:04:46.323Z,18.30
2018-11-29T22:07:14.849Z,18.23
2018-11-29T22:09:43.333Z,18.10
2018-11-29T22:12:12.241Z,16.73
2018-11-29T22:14:40.723Z,16.85
2018-11-29T22:17:09.345Z,17.65
2018-11-29T22:19:37.927Z,17.48
2018-11-29T22:22:07.034Z,17.57
2018-11-29T22:24:35.469Z,19.77
2018-11-29T22:27:03.941Z,17.48
2018-11-29T22:29:32.585Z,17.87
2018-11-29T22:32:01.227Z,18.00
2018-11-29T22:34:29.875Z,17.40
2018-11-29T22:36:58.318Z,17.23
2018-11-29T22:39:26.696Z,18.27
2018-11-29T22:41:54.894Z,18.52
2018-11-29T22:44:23.031Z,19.32
2018-11-29T22:46:51.234Z,19.77
2018-11-29T22:49:19.347Z,19.55
2018-11-29T22:51:47.476Z,19.37
2018-11-29T22:54:15.679Z,18.75
2018-11-29T22:56:43.849Z,17.15
2018-11-29T22:59:12.054Z,17.57
2018-11-29T23:01:40.169Z,17.92
2018-11-29T23:04:08.761Z,18.62
2018-11-29T23:06:36.886Z,18.35
2018-11-29T23:12:01.012Z,18.02
2018-11-29T23:14:29.127Z,18.67
2018-11-29T23:16:57.263Z,17.85
2018-11-29T23:19:25.420Z,18.27
2018-11-29T23:21:53.568Z,19.02
2018-11-29T23:24:21.640Z,17.65
2018-11-29T23:26:49.774Z,16.52
2018-11-29T23:29:17.897Z,17.55
2018-11-29T23:31:46.695Z,17.15
2018-11-29T23:34:14.837Z,17.67
2018-11-29T23:36:42.992Z,17.27
2018-11-29T23:39:11.096Z,18.52
2018-11-29T23:41:39.221Z,17.87
2018-11-29T23:44:07.373Z,18.02
2018-11-29T23:46:35.492Z,18.42
2018-11-29T23:49:03.625Z,17.75
2018-11-29T23:51:31.785Z,17.75
2018-11-29T23:53:59.903Z,17.37
2018-11-29T23:56:28.061Z,18.30
2018-11-29T23:58:56.196Z,18.73
